METAR and TAF’s


Available data for KLBB from the past 2 hours
LUBBOCK, TX
Metar
KLBB 251653Z 08009KT 10SM FEW250 16/07 A3030 RMK AO2 SLP238 T01560067

16:53 UTC

Wind: 80° 9kt

Visibility: 10 SM

Sky: FEW 25000 ft

Temp: 16 deg C / 60.8 deg F

Dewpoint: 7 deg C / 44.6 deg F

Pressure: 30.3 inHg

TAF
KLBB 251120Z 2512/2612 VRB06KT P6SM FEW250
Available data for KCVN from the past 2 hours
CLOVIS MUNI, NM
Metar
KCVN 251656Z AUTO 11005KT 10SM 13/05 A3033 RMK AO2 SLP259 T01330050 $